createdAt,value
2023-05-06T00:00:25.658Z,4.50
2023-05-06T00:01:29.458Z,4.00
2023-05-06T00:02:33.439Z,5.00
2023-05-06T00:03:37.387Z,6.00
2023-05-06T00:04:49.361Z,6.00
2023-05-06T00:05:53.241Z,6.25
2023-05-06T00:06:57.140Z,6.00
2023-05-06T00:08:01.143Z,4.50
2023-05-06T00:09:04.862Z,5.25
2023-05-06T00:10:08.837Z,5.00
2023-05-06T00:11:12.630Z,6.25
2023-05-06T00:12:16.337Z,6.75
2023-05-06T00:13:20.225Z,5.67
2023-05-06T00:14:24.046Z,4.75
2023-05-06T00:15:28.716Z,5.00
2023-05-06T00:16:32.751Z,5.50
2023-05-06T00:17:36.434Z,6.50
2023-05-06T00:18:40.437Z,6.00
2023-05-06T00:19:44.135Z,5.50
2023-05-06T00:20:47.817Z,7.00
2023-05-06T00:21:52.058Z,7.00
2023-05-06T00:22:56.023Z,6.50
2023-05-06T00:23:59.939Z,6.50
2023-05-06T00:25:04.036Z,6.00
2023-05-06T00:26:08.028Z,5.75
2023-05-06T00:27:12.028Z,7.00
2023-05-06T00:28:15.825Z,5.25
2023-05-06T00:29:19.524Z,5.00
2023-05-06T00:30:23.344Z,5.00
2023-05-06T00:31:27.340Z,5.00
2023-05-06T00:32:31.310Z,4.75
2023-05-06T00:33:35.048Z,5.00
2023-05-06T00:34:38.677Z,5.00
2023-05-06T00:35:42.363Z,4.50
2023-05-06T00:36:46.304Z,4.50
2023-05-06T00:37:50.198Z,4.75
2023-05-06T00:38:54.103Z,4.00
2023-05-06T00:39:58.071Z,4.50
2023-05-06T00:41:01.896Z,4.75
2023-05-06T00:42:05.838Z,6.00
2023-05-06T00:43:09.625Z,6.25
2023-05-06T00:44:13.297Z,4.00
2023-05-06T00:45:20.048Z,3.75
2023-05-06T00:46:24.171Z,5.50
2023-05-06T00:47:28.138Z,4.50
2023-05-06T00:48:32.286Z,4.75
2023-05-06T00:49:41.481Z,6.00
2023-05-06T00:50:45.479Z,5.00
2023-05-06T00:51:49.592Z,4.00
2023-05-06T00:52:53.794Z,5.50
2023-05-06T00:53:57.773Z,5.00
2023-05-06T00:55:01.819Z,4.75
2023-05-06T00:56:07.236Z,4.00
2023-05-06T00:57:11.441Z,4.00
2023-05-06T00:58:15.531Z,5.00
2023-05-06T00:59:19.564Z,5.00
2023-05-06T01:00:23.516Z,5.25
2023-05-06T01:01:27.537Z,5.50
2023-05-06T01:02:45.854Z,6.50
2023-05-06T01:03:36.749Z,5.50
2023-05-06T01:04:40.799Z,4.75
2023-05-06T01:05:44.877Z,4.00
2023-05-06T01:06:48.783Z,4.75
2023-05-06T01:07:52.877Z,4.25
2023-05-06T01:08:57.105Z,5.25
2023-05-06T01:10:01.088Z,5.00
2023-05-06T01:11:05.504Z,3.75
2023-05-06T01:12:10.016Z,4.00
2023-05-06T01:13:14.311Z,5.00
2023-05-06T01:14:18.288Z,5.00
2023-05-06T01:15:22.327Z,4.25
2023-05-06T01:16:26.143Z,4.50
2023-05-06T01:17:29.838Z,5.00
2023-05-06T01:18:33.621Z,4.00
2023-05-06T01:19:37.409Z,4.00
2023-05-06T01:20:41.205Z,3.50
2023-05-06T01:21:44.964Z,2.50
2023-05-06T01:22:48.704Z,2.25
2023-05-06T01:23:52.712Z,1.00
2023-05-06T01:24:56.475Z,2.50
2023-05-06T01:26:00.401Z,1.50
2023-05-06T01:27:04.185Z,1.50
2023-05-06T01:28:07.982Z,2.00
2023-05-06T01:29:11.883Z,2.50
2023-05-06T01:30:15.686Z,2.25
2023-05-06T01:31:19.599Z,2.00
2023-05-06T01:32:23.461Z,2.00
2023-05-06T01:33:27.271Z,2.25
2023-05-06T01:34:31.066Z,2.50
2023-05-06T01:35:34.972Z,1.50
2023-05-06T01:36:38.783Z,1.75
2023-05-06T01:37:42.675Z,2.00
2023-05-06T01:38:46.564Z,1.75
2023-05-06T01:39:50.469Z,2.25
2023-05-06T01:40:54.137Z,2.50
2023-05-06T01:41:58.156Z,3.50
2023-05-06T01:43:01.848Z,3.50
2023-05-06T01:44:05.645Z,3.25
2023-05-06T01:45:09.516Z,2.50
2023-05-06T01:46:13.451Z,4.50
2023-05-06T01:47:17.237Z,3.50
2023-05-06T01:48:21.237Z,2.75
2023-05-06T01:49:25.014Z,2.50
2023-05-06T01:50:28.828Z,2.75
2023-05-06T01:51:32.626Z,2.25
2023-05-06T01:52:36.292Z,3.00
2023-05-06T01:53:40.143Z,4.00
2023-05-06T01:54:43.822Z,3.00
2023-05-06T01:55:47.614Z,3.25
2023-05-06T01:56:51.344Z,4.00
2023-05-06T01:57:55.096Z,3.50
2023-05-06T01:58:59.531Z,3.50
2023-05-06T02:00:03.713Z,3.00
2023-05-06T02:01:07.510Z,4.00
2023-05-06T02:02:11.406Z,3.25
2023-05-06T02:03:15.239Z,3.25
2023-05-06T02:04:19.210Z,4.00
2023-05-06T02:05:23.209Z,4.50
2023-05-06T02:06:27.103Z,3.00
2023-05-06T02:07:31.004Z,3.00
2023-05-06T02:08:35.118Z,4.00
2023-05-06T02:09:39.313Z,3.50
2023-05-06T02:10:43.626Z,2.75
2023-05-06T02:11:47.622Z,4.00
2023-05-06T02:12:51.653Z,3.25
2023-05-06T02:13:55.622Z,2.25
2023-05-06T02:14:59.739Z,2.00
2023-05-06T02:16:03.457Z,2.25
2023-05-06T02:17:07.525Z,2.50
2023-05-06T02:18:11.731Z,3.00
2023-05-06T02:19:15.834Z,4.50
2023-05-06T02:20:19.937Z,4.50
2023-05-06T02:21:24.353Z,2.00
2023-05-06T02:22:28.557Z,2.50
2023-05-06T02:23:32.782Z,2.50
2023-05-06T02:24:36.914Z,3.00
2023-05-06T02:25:40.793Z,3.50
2023-05-06T02:26:44.772Z,3.00
2023-05-06T02:27:48.566Z,2.50
2023-05-06T02:28:52.363Z,4.00
2023-05-06T02:29:56.164Z,4.50
2023-05-06T02:31:00.181Z,3.00
2023-05-06T02:32:04.177Z,2.00
2023-05-06T02:33:08.012Z,4.00
2023-05-06T02:34:11.811Z,3.00
2023-05-06T02:35:15.646Z,3.00
2023-05-06T02:36:19.445Z,3.00
2023-05-06T02:37:23.344Z,3.00
2023-05-06T02:38:27.340Z,3.50
2023-05-06T02:39:31.140Z,2.50
2023-05-06T02:40:34.801Z,2.50
2023-05-06T02:41:38.624Z,3.00
2023-05-06T02:42:42.340Z,3.50
2023-05-06T02:43:46.127Z,3.50
2023-05-06T02:44:49.782Z,3.25
2023-05-06T02:45:53.548Z,4.50
2023-05-06T02:46:57.425Z,3.25
2023-05-06T02:48:01.314Z,2.50
2023-05-06T02:49:05.074Z,3.25
2023-05-06T02:50:08.996Z,4.00
2023-05-06T02:51:12.690Z,4.00
2023-05-06T02:52:16.590Z,3.50
2023-05-06T02:53:20.389Z,3.50
2023-05-06T02:55:35.890Z,2.50
2023-05-06T02:56:40.065Z,3.50
2023-05-06T02:57:44.181Z,3.50
2023-05-06T02:58:48.186Z,3.00
2023-05-06T02:59:52.208Z,3.50
2023-05-06T03:00:56.412Z,4.50
2023-05-06T03:02:00.274Z,3.00
2023-05-06T03:03:04.411Z,3.50
2023-05-06T03:04:08.527Z,4.25
2023-05-06T03:05:12.691Z,3.50
2023-05-06T03:06:16.711Z,3.50
2023-05-06T03:07:20.562Z,4.00
2023-05-06T03:08:24.710Z,3.50
2023-05-06T03:09:28.676Z,3.00
2023-05-06T03:10:32.810Z,2.75
2023-05-06T03:11:36.900Z,3.50
2023-05-06T03:12:40.928Z,3.50
2023-05-06T03:13:44.803Z,2.50
2023-05-06T03:14:48.825Z,5.00
2023-05-06T03:15:52.904Z,4.00
2023-05-06T03:16:57.126Z,3.50
2023-05-06T03:18:01.296Z,3.00
2023-05-06T03:19:05.314Z,4.00
2023-05-06T03:20:09.324Z,5.00
2023-05-06T03:21:13.074Z,3.50
2023-05-06T03:22:16.837Z,3.50
2023-05-06T03:23:20.639Z,3.00
2023-05-06T03:24:24.420Z,2.50
2023-05-06T03:25:28.118Z,4.25
2023-05-06T03:26:32.000Z,4.50
2023-05-06T03:27:35.790Z,4.00
2023-05-06T03:28:39.899Z,4.00
2023-05-06T03:29:43.697Z,3.25
2023-05-06T03:30:47.484Z,3.00
2023-05-06T03:31:51.440Z,4.00
2023-05-06T03:32:55.225Z,2.75
2023-05-06T03:33:58.893Z,2.50
2023-05-06T03:35:02.563Z,4.00
2023-05-06T03:36:06.572Z,3.00
2023-05-06T03:37:13.434Z,4.00
2023-05-06T03:38:17.110Z,3.75
2023-05-06T03:39:20.837Z,2.75
2023-05-06T03:40:24.518Z,2.00
2023-05-06T03:41:28.226Z,3.25
2023-05-06T03:42:32.009Z,4.00
2023-05-06T03:43:35.934Z,3.50
2023-05-06T03:44:39.972Z,3.50
2023-05-06T03:45:43.681Z,3.50
2023-05-06T03:46:47.403Z,3.00
2023-05-06T03:47:51.232Z,3.00
2023-05-06T03:48:55.098Z,2.00
2023-05-06T03:49:58.893Z,3.00
2023-05-06T03:51:02.790Z,1.75
2023-05-06T03:52:06.510Z,2.50
2023-05-06T03:53:10.287Z,3.75
2023-05-06T03:54:14.088Z,4.00
2023-05-06T03:55:17.977Z,4.50
2023-05-06T03:56:21.779Z,3.75
2023-05-06T03:57:25.566Z,4.00
2023-05-06T03:58:29.470Z,3.75
2023-05-06T03:59:33.260Z,3.00
2023-05-06T04:00:37.160Z,2.50
2023-05-06T04:01:40.867Z,4.00
2023-05-06T04:02:44.567Z,2.50
2023-05-06T04:03:48.496Z,2.50
2023-05-06T04:04:52.217Z,2.50
2023-05-06T04:05:56.057Z,2.25
2023-05-06T04:06:59.731Z,2.50
2023-05-06T04:08:03.569Z,2.50
2023-05-06T04:09:07.395Z,3.00
2023-05-06T04:10:11.121Z,2.50
2023-05-06T04:11:14.893Z,2.50
2023-05-06T04:12:18.711Z,3.50
2023-05-06T04:13:22.690Z,3.50
2023-05-06T04:14:26.386Z,1.75
2023-05-06T04:15:30.307Z,2.00
2023-05-06T04:16:34.263Z,3.00
2023-05-06T04:17:38.043Z,3.00
2023-05-06T04:18:41.902Z,3.50
2023-05-06T04:19:45.721Z,3.50
2023-05-06T04:20:49.493Z,2.50
2023-05-06T04:21:53.514Z,3.50
2023-05-06T04:22:57.295Z,4.00
2023-05-06T04:24:01.106Z,4.50
2023-05-06T04:25:04.892Z,3.50
2023-05-06T04:26:08.686Z,3.00
2023-05-06T04:27:12.377Z,2.67
2023-05-06T04:28:16.181Z,3.50
2023-05-06T04:29:20.000Z,4.00
2023-05-06T04:30:23.675Z,3.00
2023-05-06T04:31:27.391Z,3.00
2023-05-06T04:32:31.151Z,4.00
2023-05-06T04:33:34.945Z,3.00
2023-05-06T04:34:38.680Z,2.25
2023-05-06T04:35:42.538Z,2.75
2023-05-06T04:36:46.240Z,2.75
2023-05-06T04:37:49.925Z,3.50
2023-05-06T04:38:53.629Z,3.00
2023-05-06T04:39:57.416Z,2.75
2023-05-06T04:41:01.425Z,2.75
2023-05-06T04:42:05.430Z,4.00
2023-05-06T04:43:09.578Z,3.00
2023-05-06T04:44:13.542Z,3.00
2023-05-06T04:45:17.648Z,4.50
2023-05-06T04:46:21.728Z,4.00
2023-05-06T04:47:25.755Z,4.00
2023-05-06T04:48:29.844Z,4.00
2023-05-06T04:49:33.844Z,4.00
2023-05-06T04:50:38.146Z,4.75
2023-05-06T04:51:42.104Z,3.00
2023-05-06T04:52:46.149Z,3.25
2023-05-06T04:53:50.258Z,3.50
2023-05-06T04:54:53.948Z,4.00
2023-05-06T04:55:57.752Z,2.00
2023-05-06T04:57:01.852Z,3.00
2023-05-06T04:58:05.958Z,3.00
2023-05-06T04:59:09.963Z,4.00
2023-05-06T05:00:13.849Z,3.00
2023-05-06T05:01:17.983Z,3.50
2023-05-06T05:02:22.176Z,3.25
2023-05-06T05:03:26.464Z,4.50
2023-05-06T05:04:30.613Z,3.75
2023-05-06T05:05:34.263Z,3.00
2023-05-06T05:06:38.380Z,3.00
2023-05-06T05:07:42.473Z,3.00
2023-05-06T05:08:46.699Z,3.00
2023-05-06T05:09:50.656Z,2.75
2023-05-06T05:10:54.572Z,3.50
2023-05-06T05:11:58.788Z,3.75
2023-05-06T05:13:02.858Z,4.00
2023-05-06T05:14:06.795Z,3.00
2023-05-06T05:15:11.124Z,3.25
2023-05-06T05:16:15.410Z,3.00
2023-05-06T05:17:19.402Z,3.50
2023-05-06T05:18:23.504Z,2.50
2023-05-06T05:19:27.438Z,3.00
2023-05-06T05:20:31.733Z,3.00
2023-05-06T05:21:35.844Z,3.00
2023-05-06T05:22:39.718Z,2.50
2023-05-06T05:23:43.927Z,3.25
2023-05-06T05:24:48.045Z,2.75
2023-05-06T05:25:52.046Z,2.75
2023-05-06T05:26:55.828Z,3.50
2023-05-06T05:27:59.655Z,2.75
2023-05-06T05:29:03.420Z,2.00
2023-05-06T05:30:07.516Z,2.00
2023-05-06T05:31:11.451Z,2.00
2023-05-06T05:32:15.217Z,2.25
2023-05-06T05:33:19.252Z,2.50
2023-05-06T05:34:23.026Z,3.00
2023-05-06T05:35:26.703Z,3.00
2023-05-06T05:36:30.510Z,3.00
2023-05-06T05:37:34.204Z,4.50
2023-05-06T05:38:38.004Z,1.75
2023-05-06T05:39:41.667Z,1.50
2023-05-06T05:40:45.376Z,3.00
2023-05-06T05:41:49.178Z,2.50
2023-05-06T05:42:53.080Z,3.00
2023-05-06T05:43:56.877Z,4.00
2023-05-06T05:45:00.663Z,3.50
2023-05-06T05:46:04.485Z,3.25
2023-05-06T05:47:08.256Z,2.50
2023-05-06T05:48:12.077Z,2.25
2023-05-06T05:49:15.828Z,3.50
2023-05-06T05:50:19.617Z,3.50
2023-05-06T05:51:23.347Z,2.50
2023-05-06T05:52:27.045Z,2.00
2023-05-06T05:53:30.839Z,3.50
2023-05-06T05:54:34.814Z,4.00
2023-05-06T05:55:38.838Z,2.50
2023-05-06T05:56:42.834Z,3.50
2023-05-06T05:57:46.642Z,3.00
2023-05-06T05:58:50.635Z,3.00
2023-05-06T05:59:54.539Z,2.75
2023-05-06T06:00:58.419Z,3.00
2023-05-06T06:02:02.197Z,3.50
2023-05-06T06:03:06.089Z,4.00
2023-05-06T06:04:09.997Z,3.50
2023-05-06T06:05:13.719Z,3.50
2023-05-06T06:06:17.512Z,3.50
2023-05-06T06:07:21.315Z,3.50
2023-05-06T06:08:25.134Z,3.00
2023-05-06T06:09:29.226Z,3.00
2023-05-06T06:10:33.114Z,2.25
2023-05-06T06:11:37.004Z,3.00
2023-05-06T06:12:40.935Z,3.00
2023-05-06T06:13:44.711Z,1.50
2023-05-06T06:14:48.456Z,2.25
2023-05-06T06:15:52.150Z,3.50
2023-05-06T06:16:55.952Z,3.50
2023-05-06T06:17:59.751Z,3.25
2023-05-06T06:19:03.582Z,3.75
2023-05-06T06:20:07.391Z,3.25
2023-05-06T06:21:11.173Z,4.50
2023-05-06T06:22:15.071Z,3.50
2023-05-06T06:23:18.896Z,4.50
2023-05-06T06:24:22.664Z,2.50
2023-05-06T06:25:26.462Z,2.50
2023-05-06T06:26:30.361Z,2.00
2023-05-06T06:27:34.163Z,3.25
2023-05-06T06:28:37.884Z,3.50
2023-05-06T06:29:41.549Z,2.50
2023-05-06T06:30:45.339Z,3.50
2023-05-06T06:31:49.188Z,4.00
2023-05-06T06:32:53.113Z,3.25
2023-05-06T06:33:56.843Z,2.50
2023-05-06T06:35:00.730Z,3.75
2023-05-06T06:36:04.437Z,3.50
2023-05-06T06:37:08.091Z,2.75
2023-05-06T06:38:11.818Z,4.75
2023-05-06T06:39:15.640Z,4.00
2023-05-06T06:40:19.382Z,5.00
2023-05-06T06:41:23.069Z,4.50
2023-05-06T06:42:27.295Z,5.00
2023-05-06T06:43:31.106Z,4.50
2023-05-06T06:44:35.107Z,5.00
2023-05-06T06:45:38.909Z,5.50
2023-05-06T06:46:42.693Z,4.00
2023-05-06T06:47:46.618Z,4.50
2023-05-06T06:48:50.395Z,5.25
2023-05-06T06:49:54.292Z,5.00
2023-05-06T06:50:58.198Z,5.00
2023-05-06T06:52:02.084Z,4.50
2023-05-06T06:53:06.470Z,4.00
2023-05-06T06:54:11.118Z,4.50
2023-05-06T06:55:15.136Z,5.00
2023-05-06T06:56:19.113Z,4.75
2023-05-06T06:57:23.321Z,5.50
2023-05-06T06:58:27.523Z,4.00
2023-05-06T06:59:31.632Z,4.25
2023-05-06T07:00:35.756Z,4.75
2023-05-06T07:01:39.986Z,6.00
2023-05-06T07:02:44.036Z,6.50
2023-05-06T07:03:48.217Z,6.00
2023-05-06T07:04:52.141Z,5.50
2023-05-06T07:05:56.055Z,4.50
2023-05-06T07:07:00.189Z,3.75
2023-05-06T07:08:04.258Z,5.00
2023-05-06T07:09:08.156Z,5.00
2023-05-06T07:10:12.077Z,5.50
2023-05-06T07:11:16.053Z,4.75
2023-05-06T07:12:20.006Z,4.50
2023-05-06T07:13:24.058Z,6.50
2023-05-06T07:14:28.053Z,6.50
2023-05-06T07:15:31.957Z,5.00
2023-05-06T07:16:35.772Z,5.00
2023-05-06T07:17:39.539Z,5.00
2023-05-06T07:18:43.209Z,5.50
2023-05-06T07:19:47.140Z,6.00
2023-05-06T07:20:50.836Z,6.00
2023-05-06T07:21:54.627Z,5.50
2023-05-06T07:22:58.457Z,6.50
2023-05-06T07:24:02.234Z,6.50
2023-05-06T07:25:06.014Z,5.25
2023-05-06T07:26:09.733Z,5.25
2023-05-06T07:27:13.501Z,6.50
2023-05-06T07:28:17.311Z,6.50
2023-05-06T07:29:21.207Z,7.00
2023-05-06T07:30:25.117Z,7.00
2023-05-06T07:31:28.824Z,6.50
2023-05-06T07:32:32.620Z,6.25
2023-05-06T07:33:36.344Z,5.50
2023-05-06T07:34:40.409Z,5.50
2023-05-06T07:35:44.401Z,6.25
2023-05-06T07:36:48.402Z,6.50
2023-05-06T07:37:52.307Z,6.75
2023-05-06T07:38:56.236Z,6.00
2023-05-06T07:40:00.148Z,7.50
2023-05-06T07:41:03.986Z,6.50
2023-05-06T07:42:07.757Z,7.50
2023-05-06T07:43:11.481Z,8.00
2023-05-06T07:44:15.192Z,9.50
2023-05-06T07:45:18.861Z,9.50
2023-05-06T07:46:22.716Z,10.50
2023-05-06T07:47:26.739Z,10.75
2023-05-06T07:48:30.541Z,8.00
2023-05-06T07:49:34.357Z,8.50
2023-05-06T07:50:38.036Z,10.00
2023-05-06T07:51:41.742Z,13.00
2023-05-06T07:52:45.474Z,13.25
2023-05-06T07:53:49.251Z,13.00
2023-05-06T07:54:53.041Z,33.50
2023-05-06T07:55:57.148Z,44.00
2023-05-06T07:57:01.160Z,16.00
2023-05-06T07:58:05.346Z,30.50
2023-05-06T07:59:09.348Z,24.25
2023-05-06T08:00:13.349Z,77.25
2023-05-06T08:01:17.420Z,205.75
2023-05-06T08:02:21.712Z,53.00
2023-05-06T08:03:26.307Z,31.25
2023-05-06T08:04:30.494Z,28.75
2023-05-06T08:05:34.476Z,40.00
2023-05-06T08:06:38.621Z,18.75
2023-05-06T08:07:42.794Z,9.50
2023-05-06T08:08:46.692Z,10.00
2023-05-06T08:09:50.497Z,10.00
2023-05-06T08:10:54.810Z,16.00
2023-05-06T08:11:58.821Z,15.50
2023-05-06T08:13:02.935Z,8.00
2023-05-06T08:14:07.112Z,8.75
2023-05-06T08:15:11.412Z,10.00
2023-05-06T08:16:15.757Z,10.50
2023-05-06T08:17:19.838Z,10.50
2023-05-06T08:18:23.996Z,9.50
2023-05-06T08:19:27.978Z,8.00
2023-05-06T08:20:32.029Z,8.00
2023-05-06T08:21:35.933Z,11.50
2023-05-06T08:22:39.929Z,9.75
2023-05-06T08:23:43.728Z,9.50
2023-05-06T08:24:47.528Z,10.50
2023-05-06T08:25:51.226Z,11.00
2023-05-06T08:26:55.017Z,11.50
2023-05-06T08:27:58.726Z,10.50
2023-05-06T08:29:02.517Z,11.25
2023-05-06T08:30:06.358Z,12.50
2023-05-06T08:31:10.365Z,10.50
2023-05-06T08:32:14.190Z,10.00
2023-05-06T08:33:18.113Z,11.50
2023-05-06T08:34:21.911Z,11.50
2023-05-06T08:35:25.697Z,11.25
2023-05-06T08:36:29.493Z,11.00
2023-05-06T08:37:33.178Z,10.25
2023-05-06T08:38:37.178Z,14.50
2023-05-06T08:39:40.996Z,17.00
2023-05-06T08:40:45.026Z,15.50
2023-05-06T08:41:48.777Z,13.50
2023-05-06T08:42:52.585Z,11.00
2023-05-06T08:43:56.413Z,12.25
2023-05-06T08:45:00.115Z,13.00
2023-05-06T08:46:03.893Z,12.50
2023-05-06T08:47:07.690Z,10.50
2023-05-06T08:48:11.462Z,12.00
2023-05-06T08:49:15.250Z,11.25
2023-05-06T08:50:19.068Z,9.50
2023-05-06T08:51:24.809Z,9.00
2023-05-06T08:52:27.833Z,10.25
2023-05-06T08:53:31.679Z,9.50
2023-05-06T08:54:35.691Z,10.25
2023-05-06T08:55:39.773Z,10.00
2023-05-06T08:56:43.670Z,9.00
2023-05-06T08:57:47.674Z,9.75
2023-05-06T08:58:51.227Z,11.50
2023-05-06T08:59:54.957Z,10.50
2023-05-06T09:00:59.004Z,8.50
2023-05-06T09:02:02.925Z,9.25
2023-05-06T09:03:06.995Z,9.00
2023-05-06T09:04:10.776Z,9.25
2023-05-06T09:05:14.518Z,9.50
2023-05-06T09:06:18.247Z,9.00
2023-05-06T09:07:21.939Z,8.75
2023-05-06T09:08:25.991Z,8.50
2023-05-06T09:09:29.742Z,9.25
2023-05-06T09:10:33.534Z,10.75
2023-05-06T09:11:37.340Z,10.50
2023-05-06T09:12:41.261Z,9.50
2023-05-06T09:13:45.032Z,8.25
2023-05-06T09:14:48.817Z,9.00
2023-05-06T09:15:52.617Z,9.50
2023-05-06T09:16:56.446Z,9.50
2023-05-06T09:18:00.287Z,8.00
2023-05-06T09:19:04.112Z,8.00
2023-05-06T09:20:08.031Z,7.00
2023-05-06T09:21:11.906Z,8.50
2023-05-06T09:22:15.712Z,10.00
2023-05-06T09:23:20.028Z,9.25
2023-05-06T09:24:24.091Z,9.00
2023-05-06T09:25:28.124Z,9.00
2023-05-06T09:26:32.008Z,9.00
2023-05-06T09:27:36.137Z,9.00
2023-05-06T09:28:40.121Z,9.00
2023-05-06T09:29:44.220Z,10.00
2023-05-06T09:30:48.361Z,10.50
2023-05-06T09:31:52.323Z,12.25
2023-05-06T09:32:56.484Z,14.75
2023-05-06T09:34:00.526Z,14.50
2023-05-06T09:35:04.842Z,14.75
2023-05-06T09:36:08.958Z,16.50
2023-05-06T09:37:12.951Z,17.25
2023-05-06T09:38:16.963Z,20.50
2023-05-06T09:39:20.954Z,21.50
2023-05-06T09:40:25.284Z,19.75
2023-05-06T09:41:29.282Z,19.75
2023-05-06T09:42:33.461Z,18.75
2023-05-06T09:43:37.360Z,18.00
2023-05-06T09:44:41.468Z,17.50
2023-05-06T09:45:45.635Z,16.00
2023-05-06T09:46:49.472Z,18.00
2023-05-06T09:47:53.560Z,17.25
2023-05-06T09:48:57.684Z,17.50
2023-05-06T09:50:01.566Z,16.50
2023-05-06T09:51:05.387Z,18.50
2023-05-06T09:52:10.304Z,19.25
2023-05-06T09:53:13.993Z,17.00
2023-05-06T09:54:17.684Z,19.00
2023-05-06T09:55:21.678Z,17.75
2023-05-06T09:56:25.484Z,15.75
2023-05-06T09:57:29.138Z,16.25
2023-05-06T09:58:33.256Z,17.00
2023-05-06T09:59:37.364Z,16.00
2023-05-06T10:00:41.871Z,16.50
2023-05-06T10:01:46.204Z,18.50
2023-05-06T10:02:51.612Z,18.00
2023-05-06T10:03:56.065Z,17.00
2023-05-06T10:05:00.834Z,17.00
2023-05-06T10:06:05.566Z,16.50
2023-05-06T10:07:09.880Z,15.50
2023-05-06T10:08:14.399Z,16.50
2023-05-06T10:09:18.623Z,17.50
2023-05-06T10:10:25.280Z,15.00
2023-05-06T10:11:28.537Z,15.25
2023-05-06T10:12:32.986Z,16.50
2023-05-06T10:13:37.051Z,16.00
2023-05-06T10:14:41.364Z,17.00
2023-05-06T10:15:45.944Z,16.50
2023-05-06T10:16:50.087Z,18.00
2023-05-06T10:17:54.270Z,17.25
2023-05-06T10:18:58.681Z,18.00
2023-05-06T10:20:02.772Z,18.50
2023-05-06T10:21:07.110Z,17.00
2023-05-06T10:22:11.312Z,18.00
2023-05-06T10:23:15.585Z,19.75
2023-05-06T10:24:19.799Z,18.50
2023-05-06T10:25:24.007Z,20.50
2023-05-06T10:26:28.139Z,18.00
2023-05-06T10:27:32.551Z,19.25
2023-05-06T10:28:36.861Z,22.75
2023-05-06T10:29:41.028Z,20.25
2023-05-06T10:30:45.073Z,17.75
2023-05-06T10:31:49.390Z,17.00
2023-05-06T10:32:53.544Z,16.25
2023-05-06T10:33:57.785Z,17.50
2023-05-06T10:35:03.116Z,17.25
2023-05-06T10:36:07.305Z,17.25
2023-05-06T10:37:11.318Z,17.50
2023-05-06T10:38:15.439Z,17.00
2023-05-06T10:39:19.628Z,16.00
2023-05-06T10:40:23.737Z,16.50
2023-05-06T10:41:27.749Z,15.50
2023-05-06T10:42:32.021Z,16.25
2023-05-06T10:43:36.145Z,20.00
2023-05-06T10:44:40.116Z,18.25
2023-05-06T10:45:44.292Z,18.50
2023-05-06T10:46:48.576Z,17.00
2023-05-06T10:47:52.741Z,18.00
2023-05-06T10:48:56.782Z,18.00
2023-05-06T10:50:00.861Z,17.00
2023-05-06T10:51:04.984Z,18.75
2023-05-06T10:52:09.179Z,20.00
2023-05-06T10:53:13.157Z,19.50
2023-05-06T10:54:17.280Z,19.25
2023-05-06T10:55:21.586Z,18.00
2023-05-06T10:56:25.583Z,18.50
2023-05-06T10:57:29.690Z,18.00
2023-05-06T10:58:33.894Z,18.00
2023-05-06T10:59:38.407Z,18.50
2023-05-06T11:00:42.769Z,19.50
2023-05-06T11:01:47.224Z,18.25
2023-05-06T11:02:51.934Z,18.75
2023-05-06T11:03:56.256Z,20.00
2023-05-06T11:05:00.681Z,17.50
2023-05-06T11:06:05.294Z,16.50
2023-05-06T11:07:09.602Z,16.75
2023-05-06T11:08:13.818Z,16.50
2023-05-06T11:09:18.024Z,16.50
2023-05-06T11:10:22.628Z,15.50
2023-05-06T11:11:26.822Z,17.75
2023-05-06T11:12:31.133Z,17.75
2023-05-06T11:13:35.440Z,17.00
2023-05-06T11:14:39.767Z,16.75
2023-05-06T11:15:43.948Z,19.00
2023-05-06T11:16:48.228Z,20.25
2023-05-06T11:17:52.632Z,18.50
2023-05-06T11:18:56.850Z,17.75
2023-05-06T11:20:01.092Z,18.25
2023-05-06T11:21:05.338Z,17.25
2023-05-06T11:22:09.512Z,17.00
2023-05-06T11:23:13.696Z,19.50
2023-05-06T11:24:18.115Z,19.50
2023-05-06T11:25:22.530Z,19.00
2023-05-06T11:26:26.835Z,17.50
2023-05-06T11:27:31.276Z,17.50
2023-05-06T11:28:35.562Z,21.00
2023-05-06T11:29:39.870Z,21.75
2023-05-06T11:30:44.142Z,18.50
2023-05-06T11:31:48.371Z,17.00
2023-05-06T11:32:52.590Z,17.50
2023-05-06T11:33:56.887Z,18.00
2023-05-06T11:35:01.092Z,20.00
2023-05-06T11:36:05.446Z,17.25
2023-05-06T11:37:10.121Z,16.25
2023-05-06T11:38:14.337Z,15.50
2023-05-06T11:39:18.847Z,17.00
2023-05-06T11:40:22.841Z,17.00
2023-05-06T11:41:27.359Z,18.00
2023-05-06T11:42:31.212Z,18.50
2023-05-06T11:43:35.173Z,20.00
2023-05-06T11:44:39.281Z,18.50
2023-05-06T11:45:43.391Z,18.75
2023-05-06T11:46:47.421Z,20.00
2023-05-06T11:47:51.570Z,19.25
2023-05-06T11:48:55.669Z,18.50
2023-05-06T11:49:59.555Z,20.50
2023-05-06T11:51:03.681Z,20.50
2023-05-06T11:52:07.789Z,21.00
2023-05-06T11:53:11.986Z,19.00
2023-05-06T11:54:16.393Z,19.75
2023-05-06T11:55:20.594Z,21.75
2023-05-06T11:56:25.018Z,27.00
2023-05-06T11:57:29.106Z,28.50
2023-05-06T11:58:33.346Z,29.50
2023-05-06T11:59:37.554Z,30.75
2023-05-06T12:00:41.830Z,28.75
2023-05-06T12:01:45.929Z,25.75
2023-05-06T12:02:49.966Z,26.00
2023-05-06T12:03:54.212Z,28.00
2023-05-06T12:04:58.977Z,30.00
2023-05-06T12:06:03.063Z,32.50
2023-05-06T12:07:07.369Z,30.50
2023-05-06T12:08:23.551Z,31.00
2023-05-06T12:09:17.225Z,31.50
2023-05-06T12:10:21.429Z,32.00
2023-05-06T12:11:25.627Z,32.75
2023-05-06T12:12:29.833Z,31.25
2023-05-06T12:13:34.272Z,30.50
2023-05-06T12:14:38.457Z,32.50
2023-05-06T12:15:43.169Z,31.75
2023-05-06T12:16:47.657Z,28.75
2023-05-06T12:17:51.923Z,26.50
2023-05-06T12:18:55.993Z,27.00
2023-05-06T12:20:00.606Z,28.00
2023-05-06T12:21:04.916Z,29.25
2023-05-06T12:22:09.120Z,30.25
2023-05-06T12:23:13.435Z,30.50
2023-05-06T12:24:17.855Z,28.50
2023-05-06T12:25:22.080Z,26.75
2023-05-06T12:26:26.456Z,27.00
2023-05-06T12:27:30.789Z,25.00
2023-05-06T12:28:35.111Z,25.00
2023-05-06T12:29:39.278Z,25.50
2023-05-06T12:30:43.447Z,26.00
2023-05-06T12:31:47.868Z,27.50
2023-05-06T12:32:52.041Z,27.00
2023-05-06T12:33:57.533Z,24.75
2023-05-06T12:35:01.334Z,28.50
2023-05-06T12:36:05.377Z,30.00
2023-05-06T12:37:09.338Z,27.50
2023-05-06T12:38:13.547Z,30.50
2023-05-06T12:39:17.429Z,30.75
2023-05-06T12:40:21.448Z,28.75
2023-05-06T12:41:25.551Z,28.50
2023-05-06T12:42:29.552Z,29.00
2023-05-06T12:43:33.664Z,31.00
2023-05-06T12:44:37.693Z,32.50
2023-05-06T12:45:41.556Z,32.50
2023-05-06T12:46:45.553Z,32.00
2023-05-06T12:47:52.509Z,34.00
2023-05-06T12:48:56.554Z,32.50
2023-05-06T12:50:00.549Z,35.50
2023-05-06T12:51:04.756Z,34.25
2023-05-06T12:52:08.945Z,32.50
2023-05-06T12:53:13.158Z,31.75
2023-05-06T12:54:17.146Z,29.25
2023-05-06T12:55:21.139Z,31.75
2023-05-06T12:56:25.375Z,32.50
2023-05-06T12:57:29.557Z,33.00
2023-05-06T12:58:33.658Z,30.50
2023-05-06T12:59:37.664Z,28.25
2023-05-06T13:00:41.901Z,33.00
2023-05-06T13:01:45.897Z,34.50
2023-05-06T13:02:50.092Z,32.50
2023-05-06T13:03:54.074Z,27.50
2023-05-06T13:04:58.493Z,24.50
2023-05-06T13:06:02.588Z,27.00
2023-05-06T13:07:06.589Z,26.50
2023-05-06T13:08:11.099Z,25.00
2023-05-06T13:09:15.456Z,28.50
2023-05-06T13:10:19.513Z,30.00
2023-05-06T13:11:23.617Z,27.00
2023-05-06T13:12:27.727Z,27.75
2023-05-06T13:13:31.723Z,25.00
2023-05-06T13:14:37.672Z,24.50
2023-05-06T13:15:41.057Z,28.25
2023-05-06T13:16:45.333Z,27.25
2023-05-06T13:17:49.485Z,27.50
2023-05-06T13:18:53.613Z,24.50
2023-05-06T13:19:57.685Z,24.00
2023-05-06T13:21:01.555Z,26.00
2023-05-06T13:22:05.672Z,27.50
2023-05-06T13:23:09.775Z,26.50
2023-05-06T13:24:13.913Z,24.25
2023-05-06T13:25:18.298Z,25.00
2023-05-06T13:26:22.606Z,23.25
2023-05-06T13:27:26.819Z,25.00
2023-05-06T13:28:31.013Z,29.25
2023-05-06T13:29:35.437Z,31.25
2023-05-06T13:30:39.757Z,28.50
2023-05-06T13:31:43.896Z,30.00
2023-05-06T13:32:48.611Z,29.50
2023-05-06T13:33:52.557Z,27.00
2023-05-06T13:34:56.578Z,25.00
2023-05-06T13:36:01.532Z,23.50
2023-05-06T13:37:05.789Z,26.00
2023-05-06T13:38:09.893Z,26.50
2023-05-06T13:39:13.996Z,24.50
2023-05-06T13:40:18.300Z,21.75
2023-05-06T13:41:22.301Z,21.00
2023-05-06T13:42:26.401Z,21.00
2023-05-06T13:43:30.411Z,20.25
2023-05-06T13:44:34.462Z,21.25
2023-05-06T13:45:38.722Z,23.50
2023-05-06T13:46:44.853Z,23.50
2023-05-06T13:47:48.605Z,26.75
2023-05-06T13:48:52.800Z,27.75
2023-05-06T13:49:57.085Z,29.00
2023-05-06T13:51:01.380Z,27.00
2023-05-06T13:52:07.894Z,27.50
2023-05-06T13:53:10.817Z,27.50
2023-05-06T13:54:14.931Z,27.25
2023-05-06T13:55:19.495Z,29.00
2023-05-06T13:56:23.952Z,27.50
2023-05-06T13:57:28.281Z,26.75
2023-05-06T13:58:32.393Z,28.50
2023-05-06T13:59:36.682Z,29.00
2023-05-06T14:00:41.181Z,29.00
2023-05-06T14:01:45.468Z,28.25